Time;durP1;ratioP1;P1;durP2;ratioP2;P2;SDS_P1;SDS_P2;PMS_P1;PMS_P2;Temp;Humidity;BMP_temperature;BMP_pressure;BME280_temperature;BME280_humidity;BME280_pressure;Samples;Min_cycle;Max_cycle;Signal;HPM_P1;HPM_P2
2021/11/17 02:25:43;;;;;;;;;;;5.40;49.80;;;;;;4372461;32;19954;-41
2021/11/17 02:28:41;;;;;;;;;;;5.40;49.90;;;;;;4370617;32;20067;-41
2021/11/17 02:31:36;;;;;;;;;;;5.40;50.00;;;;;;4372853;32;20407;-41
2021/11/17 02:34:18;;;;;;;;;;;5.50;49.90;;;;;;4369566;32;19985;-41
2021/11/17 02:37:03;;;;;;;;;;;5.50;49.90;;;;;;4372709;32;20006;-42
2021/11/17 02:39:37;;;;;;;;;;;5.50;49.90;;;;;;4372822;32;20424;-41
2021/11/17 02:42:10;;;;;;;;;;;5.50;49.90;;;;;;4372551;32;19984;-38
2021/11/17 02:44:45;;;;;;;;;;;5.50;49.90;;;;;;4372227;32;20001;-42
2021/11/17 02:47:21;;;;;;;;;;;5.50;49.80;;;;;;4361363;32;19946;-41
2021/11/17 02:49:57;;;;;;;;;;;5.50;49.90;;;;;;4375210;32;19990;-41
2021/11/17 02:52:40;;;;;;;;;;;5.50;49.90;;;;;;4375192;32;19990;-41
2021/11/17 02:55:06;;;;;;;;;;;5.50;49.90;;;;;;4360739;32;19981;-41
2021/11/17 02:57:40;;;;;;;;;;;5.40;50.00;;;;;;4375174;32;20477;-41
2021/11/17 03:00:15;;;;;;;;;;;5.50;50.10;;;;;;4374863;32;20061;-42
2021/11/17 03:02:59;;;;;;;;;;;5.40;50.20;;;;;;4375093;32;19971;-42
2021/11/17 03:06:02;;;;;;;;;;;5.50;50.40;;;;;;4374833;32;20370;-38
2021/11/17 03:08:49;;;;;;;;;;;5.40;50.50;;;;;;4374540;32;20057;-42
2021/11/17 03:11:31;;;;;;;;;;;5.40;50.80;;;;;;4375248;32;20105;-43
2021/11/17 03:14:25;;;;;;;;;;;5.40;51.10;;;;;;4361155;32;19984;-40
2021/11/17 03:17:06;;;;;;;;;;;5.40;51.20;;;;;;4375091;32;19968;-42
2021/11/17 03:19:46;;;;;;;;;;;5.40;51.30;;;;;;4375242;32;20410;-41
2021/11/17 03:22:33;;;;;;;;;;;5.40;51.60;;;;;;4374819;32;19966;-41
2021/11/17 03:25:10;;;;;;;;;;;5.40;51.60;;;;;;4374910;32;20456;-44
2021/11/17 03:27:46;;;;;;;;;;;5.40;51.60;;;;;;4374126;32;19973;-42
2021/11/17 03:30:31;;;;;;;;;;;5.40;52.30;;;;;;4374655;32;20407;-43
2021/11/17 03:33:11;;;;;;;;;;;5.40;51.60;;;;;;4388131;32;20465;-43
2021/11/17 03:35:56;;;;;;;;;;;5.40;51.60;;;;;;4389655;32;19996;-43
2021/11/17 03:38:56;;;;;;;;;;;5.40;51.60;;;;;;4389941;32;20070;-43
2021/11/17 03:41:42;;;;;;;;;;;5.40;51.80;;;;;;4389282;32;20467;-42
2021/11/17 03:44:14;;;;;;;;;;;5.40;51.80;;;;;;4389064;32;19987;-42
2021/11/17 03:47:21;;;;;;;;;;;5.30;51.80;;;;;;4389911;32;19970;-42
2021/11/17 03:50:04;;;;;;;;;;;5.30;51.90;;;;;;4389901;32;19966;-42
2021/11/17 03:52:43;;;;;;;;;;;5.30;52.00;;;;;;4389327;32;20479;-41
2021/11/17 03:55:47;;;;;;;;;;;5.30;52.00;;;;;;4389108;32;19965;-43
2021/11/17 03:58:26;;;;;;;;;;;5.30;52.00;;;;;;4374447;32;19988;-42
2021/11/17 04:01:01;;;;;;;;;;;5.30;52.70;;;;;;4389444;32;19957;-42
2021/11/17 04:03:35;;;;;;;;;;;5.30;52.00;;;;;;4389337;32;19981;-44
2021/11/17 04:06:28;;;;;;;;;;;5.40;52.10;;;;;;4388880;32;19957;-42
2021/11/17 04:09:20;;;;;;;;;;;5.40;52.10;;;;;;4389090;32;20464;-39
2021/11/17 04:11:56;;;;;;;;;;;5.30;52.00;;;;;;4388309;32;19981;-44
2021/11/17 04:14:34;;;;;;;;;;;5.40;52.10;;;;;;4389198;32;19985;-43
2021/11/17 04:17:22;;;;;;;;;;;5.40;52.10;;;;;;4374963;32;19969;-39
2021/11/17 04:20:12;;;;;;;;;;;5.40;52.10;;;;;;4386820;32;19968;-42
2021/11/17 04:22:51;;;;;;;;;;;5.40;52.00;;;;;;4374019;32;19990;-44
2021/11/17 04:26:03;;;;;;;;;;;5.40;52.00;;;;;;4373623;32;20362;-42
2021/11/17 04:28:54;;;;;;;;;;;5.40;52.00;;;;;;4351474;32;20049;-42
2021/11/17 04:31:38;;;;;;;;;;;5.50;52.00;;;;;;4373421;32;20056;-42
2021/11/17 04:34:20;;;;;;;;;;;5.50;51.90;;;;;;4373693;32;20029;-42
2021/11/17 04:37:02;;;;;;;;;;;5.50;51.80;;;;;;4373554;32;19965;-41
2021/11/17 04:40:29;;;;;;;;;;;5.60;51.80;;;;;;4373880;32;19964;-43
2021/11/17 04:43:24;;;;;;;;;;;5.60;51.70;;;;;;4317650;33;20046;-41
2021/11/17 04:46:08;;;;;;;;;;;5.50;51.70;;;;;;4314011;33;19975;-42
2021/11/17 04:48:55;;;;;;;;;;;5.50;51.70;;;;;;4314132;33;19986;-41
2021/11/17 04:51:28;;;;;;;;;;;5.50;51.70;;;;;;4326701;33;20128;-42
2021/11/17 04:54:21;;;;;;;;;;;5.50;51.70;;;;;;4326585;33;20544;-42
2021/11/17 04:57:06;;;;;;;;;;;5.60;51.80;;;;;;4314195;33;19963;-42
2021/11/17 04:59:41;;;;;;;;;;;5.60;51.80;;;;;;4326091;33;20043;-37
2021/11/17 05:02:16;;;;;;;;;;;5.60;51.90;;;;;;4326060;33;19975;-37
2021/11/17 05:05:08;;;;;;;;;;;5.60;51.80;;;;;;4326533;33;19971;-38
2021/11/17 05:07:52;;;;;;;;;;;5.60;51.80;;;;;;4326296;33;20043;-40
2021/11/17 05:10:45;;;;;;;;;;;5.60;51.90;;;;;;4326040;33;20002;-39
2021/11/17 05:13:36;;;;;;;;;;;5.60;51.90;;;;;;4338971;32;20090;-41
2021/11/17 05:16:14;;;;;;;;;;;5.50;51.90;;;;;;4372993;32;20406;-40
2021/11/17 05:18:55;;;;;;;;;;;5.60;51.90;;;;;;4372674;32;19969;-40
2021/11/17 05:21:21;;;;;;;;;;;5.60;51.90;;;;;;4372358;32;20551;-40
2021/11/17 05:24:06;;;;;;;;;;;5.60;51.80;;;;;;4372991;32;20415;-41
2021/11/17 05:26:58;;;;;;;;;;;5.60;51.90;;;;;;4372900;32;20452;-41
2021/11/17 05:29:49;;;;;;;;;;;5.60;51.80;;;;;;4365018;32;20002;-42
2021/11/17 05:32:50;;;;;;;;;;;5.60;51.80;;;;;;4371696;32;19962;-44
2021/11/17 05:35:55;;;;;;;;;;;5.60;51.80;;;;;;4380688;32;19985;-47
2021/11/17 05:39:00;;;;;;;;;;;5.60;51.70;;;;;;4349802;32;20042;-51
2021/11/17 05:41:33;;;;;;;;;;;5.60;51.70;;;;;;4385494;32;19993;-52
2021/11/17 05:44:02;;;;;;;;;;;5.60;51.70;;;;;;4387963;32;19965;-47
2021/11/17 05:46:49;;;;;;;;;;;5.60;51.70;;;;;;4387918;32;19981;-51
2021/11/17 05:49:56;;;;;;;;;;;5.60;51.70;;;;;;4387811;32;20399;-51
2021/11/17 05:52:35;;;;;;;;;;;5.70;51.80;;;;;;4361325;32;20055;-48
2021/11/17 05:55:42;;;;;;;;;;;5.70;51.80;;;;;;4387395;32;19982;-51
2021/11/17 05:58:53;;;;;;;;;;;5.80;51.80;;;;;;4381028;32;19970;-49
2021/11/17 06:01:25;;;;;;;;;;;5.70;51.80;;;;;;4387282;32;20780;-52
2021/11/17 06:03:58;;;;;;;;;;;5.70;51.80;;;;;;4387692;32;20381;-52
2021/11/17 06:06:24;;;;;;;;;;;5.70;52.10;;;;;;4387616;32;19954;-52
2021/11/17 06:08:50;;;;;;;;;;;5.70;52.20;;;;;;4387346;32;20173;-48
2021/11/17 06:11:18;;;;;;;;;;;5.80;52.30;;;;;;4387644;32;19966;-50
2021/11/17 06:13:44;;;;;;;;;;;5.80;52.40;;;;;;4387751;32;20065;-49
2021/11/17 06:16:10;;;;;;;;;;;5.80;52.50;;;;;;4373174;32;19966;-48
2021/11/17 06:18:37;;;;;;;;;;;5.80;52.70;;;;;;4373103;32;20034;-48
2021/11/17 06:21:06;;;;;;;;;;;5.80;52.60;;;;;;4379140;32;20031;-47
2021/11/17 06:23:41;;;;;;;;;;;5.90;52.70;;;;;;4362187;32;19976;-46
2021/11/17 06:26:09;;;;;;;;;;;5.90;52.70;;;;;;4375665;32;20401;-40
2021/11/17 06:28:35;;;;;;;;;;;5.90;52.70;;;;;;4375341;32;20005;-47
2021/11/17 06:31:01;;;;;;;;;;;6.00;52.80;;;;;;4375407;32;20412;-41
2021/11/17 06:33:28;;;;;;;;;;;6.00;52.90;;;;;;4375042;32;20068;-47
2021/11/17 06:35:54;;;;;;;;;;;6.00;52.90;;;;;;4375187;32;19974;-50
2021/11/17 06:38:20;;;;;;;;;;;5.90;53.10;;;;;;4375669;32;19966;-53
2021/11/17 06:40:49;;;;;;;;;;;5.90;53.30;;;;;;4374981;32;20042;-49
2021/11/17 06:43:16;;;;;;;;;;;5.90;53.30;;;;;;4375120;32;20030;-48
2021/11/17 06:45:53;;;;;;;;;;;6.00;53.50;;;;;;4375320;32;19962;-49
2021/11/17 06:48:21;;;;;;;;;;;6.00;53.40;;;;;;4375509;32;20047;-47
2021/11/17 06:50:47;;;;;;;;;;;6.10;53.30;;;;;;4375126;32;20389;-50
2021/11/17 06:53:14;;;;;;;;;;;6.20;53.30;;;;;;4374888;32;20084;-50
2021/11/17 06:55:40;;;;;;;;;;;6.20;53.10;;;;;;4373486;32;19997;-48
2021/11/17 06:58:07;;;;;;;;;;;6.30;53.10;;;;;;4373408;32;20073;-41
2021/11/17 07:00:34;;;;;;;;;;;6.40;53.00;;;;;;4375474;32;19968;-44
2021/11/17 07:03:01;;;;;;;;;;;6.40;52.80;;;;;;4374907;32;20377;-48
2021/11/17 07:05:27;;;;;;;;;;;6.50;52.80;;;;;;4375110;32;19962;-51
2021/11/17 07:07:57;;;;;;;;;;;6.60;52.70;;;;;;4374699;32;19966;-49
2021/11/17 07:10:26;;;;;;;;;;;6.60;52.40;;;;;;4375091;32;19962;-49
2021/11/17 07:12:53;;;;;;;;;;;6.70;52.40;;;;;;4375011;32;20045;-46
2021/11/17 07:15:19;;;;;;;;;;;6.70;52.50;;;;;;4374633;32;19978;-47
2021/11/17 07:17:45;;;;;;;;;;;6.80;52.30;;;;;;4374944;32;19968;-48
2021/11/17 07:20:12;;;;;;;;;;;6.90;52.00;;;;;;4374710;32;19966;-47
2021/11/17 07:22:39;;;;;;;;;;;7.00;51.90;;;;;;4374586;32;20387;-42
2021/11/17 07:25:06;;;;;;;;;;;7.00;51.70;;;;;;4374683;32;19958;-47
2021/11/17 07:27:32;;;;;;;;;;;7.10;51.50;;;;;;4374228;32;20422;-49
2021/11/17 07:29:59;;;;;;;;;;;7.10;51.40;;;;;;4374868;32;20005;-47
2021/11/17 07:32:26;;;;;;;;;;;7.10;51.30;;;;;;4372219;32;19966;-41
2021/11/17 07:34:52;;;;;;;;;;;7.20;51.20;;;;;;4379344;32;19973;-47
2021/11/17 07:37:19;;;;;;;;;;;7.20;51.10;;;;;;4389616;32;19962;-48
2021/11/17 07:39:45;;;;;;;;;;;7.20;50.90;;;;;;4389670;32;19976;-47
2021/11/17 07:42:11;;;;;;;;;;;7.20;50.80;;;;;;4389373;32;19978;-48
2021/11/17 07:44:38;;;;;;;;;;;7.30;50.90;;;;;;4389926;32;20004;-45
2021/11/17 07:47:04;;;;;;;;;;;7.30;50.60;;;;;;4389557;32;20038;-46
2021/11/17 07:49:30;;;;;;;;;;;7.30;50.50;;;;;;4389814;32;20141;-45
2021/11/17 07:51:57;;;;;;;;;;;7.30;50.10;;;;;;4389185;32;19974;-45
2021/11/17 07:54:24;;;;;;;;;;;7.30;50.10;;;;;;4374928;32;19966;-43
2021/11/17 07:56:50;;;;;;;;;;;7.30;50.30;;;;;;4389066;32;19961;-45
2021/11/17 07:59:19;;;;;;;;;;;7.40;50.30;;;;;;4375161;32;19965;-45
2021/11/17 08:01:46;;;;;;;;;;;7.40;50.00;;;;;;4389400;32;20058;-45
2021/11/17 08:04:16;;;;;;;;;;;7.50;50.10;;;;;;4375218;32;19961;-45
2021/11/17 08:06:42;;;;;;;;;;;7.50;49.90;;;;;;4375131;32;19977;-42
2021/11/17 08:09:09;;;;;;;;;;;7.60;49.90;;;;;;4389174;32;20133;-45
2021/11/17 08:11:36;;;;;;;;;;;7.70;49.70;;;;;;4375044;32;19962;-47
2021/11/17 08:14:02;;;;;;;;;;;7.70;49.50;;;;;;4374765;32;19975;-45
2021/11/17 08:16:28;;;;;;;;;;;7.70;49.60;;;;;;4374579;32;20046;-45
2021/11/17 08:18:55;;;;;;;;;;;7.70;49.40;;;;;;4374969;32;19994;-44
2021/11/17 08:21:21;;;;;;;;;;;7.70;49.20;;;;;;4377058;32;19983;-44
2021/11/17 08:23:47;;;;;;;;;;;7.70;49.40;;;;;;4374010;32;19966;-44
2021/11/17 08:26:15;;;;;;;;;;;7.70;49.10;;;;;;4373831;32;20420;-45
2021/11/17 08:28:42;;;;;;;;;;;7.70;49.10;;;;;;4347933;32;19966;-46
2021/11/17 08:31:09;;;;;;;;;;;7.70;49.20;;;;;;4373754;32;20483;-46
2021/11/17 08:33:35;;;;;;;;;;;7.80;49.30;;;;;;4373796;32;20081;-48
2021/11/17 08:36:02;;;;;;;;;;;7.80;49.30;;;;;;4358954;32;19970;-42
2021/11/17 08:38:29;;;;;;;;;;;7.90;49.90;;;;;;4373650;32;19966;-46
2021/11/17 08:40:58;;;;;;;;;;;7.90;49.30;;;;;;4373734;32;19970;-45
2021/11/17 08:43:25;;;;;;;;;;;8.00;49.20;;;;;;4372961;32;19996;-45
2021/11/17 08:45:51;;;;;;;;;;;8.10;49.20;;;;;;4373424;32;19961;-47
2021/11/17 08:48:19;;;;;;;;;;;8.10;48.90;;;;;;4372888;32;20409;-43
2021/11/17 08:50:45;;;;;;;;;;;8.10;48.50;;;;;;4373163;32;20066;-48
2021/11/17 08:53:12;;;;;;;;;;;8.10;48.20;;;;;;4373606;32;19982;-43
2021/11/17 08:55:42;;;;;;;;;;;8.10;48.20;;;;;;4373212;32;19954;-46
2021/11/17 08:58:08;;;;;;;;;;;8.10;48.30;;;;;;4373607;32;19965;-46
2021/11/17 09:00:35;;;;;;;;;;;8.00;48.20;;;;;;4373429;32;20053;-45
2021/11/17 09:03:02;;;;;;;;;;;8.00;48.30;;;;;;4359137;32;19962;-46
2021/11/17 09:05:33;;;;;;;;;;;8.10;48.40;;;;;;4373058;32;19978;-48
2021/11/17 09:07:59;;;;;;;;;;;8.10;48.30;;;;;;4372910;32;19978;-47
2021/11/17 09:10:27;;;;;;;;;;;8.10;48.40;;;;;;4372747;32;20453;-47
2021/11/17 09:12:54;;;;;;;;;;;8.10;48.30;;;;;;4372857;32;19985;-47
2021/11/17 09:15:22;;;;;;;;;;;8.20;48.30;;;;;;4372664;32;19977;-48
2021/11/17 09:17:48;;;;;;;;;;;8.20;48.30;;;;;;4372705;32;19996;-47
2021/11/17 09:20:15;;;;;;;;;;;8.30;48.30;;;;;;4377662;32;19987;-47
2021/11/17 09:22:42;;;;;;;;;;;8.30;48.00;;;;;;4388096;32;19962;-46
2021/11/17 09:25:09;;;;;;;;;;;8.30;47.80;;;;;;4387882;32;19997;-47
2021/11/17 09:27:36;;;;;;;;;;;8.30;47.60;;;;;;4387973;32;19966;-45
2021/11/17 09:30:05;;;;;;;;;;;8.30;47.60;;;;;;4388231;32;20008;-47
2021/11/17 09:32:32;;;;;;;;;;;8.30;47.50;;;;;;4387802;32;20013;-48
2021/11/17 09:35:03;;;;;;;;;;;8.30;47.30;;;;;;4387523;32;19997;-46
2021/11/17 09:37:29;;;;;;;;;;;8.30;47.20;;;;;;4387501;32;19966;-47
2021/11/17 09:39:56;;;;;;;;;;;8.30;47.40;;;;;;4388104;32;19973;-46
2021/11/17 09:42:23;;;;;;;;;;;8.20;47.40;;;;;;4387812;32;19970;-47
2021/11/17 09:44:50;;;;;;;;;;;8.20;47.50;;;;;;4388079;32;19977;-45
2021/11/17 09:47:18;;;;;;;;;;;8.20;47.50;;;;;;4388253;32;20056;-46
2021/11/17 09:50:03;;;;;;;;;;;8.20;47.40;;;;;;4374159;32;19985;-48
2021/11/17 09:52:33;;;;;;;;;;;8.20;47.30;;;;;;4387165;32;20387;-46
2021/11/17 09:55:15;;;;;;;;;;;8.20;47.30;;;;;;4387125;32;20033;-46
2021/11/17 09:57:45;;;;;;;;;;;8.10;47.10;;;;;;4387502;32;20050;-46
2021/11/17 10:00:15;;;;;;;;;;;8.00;47.40;;;;;;4373755;32;19969;-47
2021/11/17 10:02:47;;;;;;;;;;;8.00;47.60;;;;;;4387636;32;20009;-48
2021/11/17 10:05:21;;;;;;;;;;;8.00;47.80;;;;;;4373954;32;19958;-48
2021/11/17 10:13:55;;;;;;;;;;;8.20;47.50;;;;;;4364687;32;19984;-46
2021/11/17 10:16:23;;;;;;;;;;;8.30;47.40;;;;;;4361818;32;19962;-45
2021/11/17 10:19:25;;;;;;;;;;;8.30;47.40;;;;;;4387792;32;19962;-46
2021/11/17 10:21:57;;;;;;;;;;;8.30;47.40;;;;;;4371000;32;20012;-44
2021/11/17 10:24:37;;;;;;;;;;;8.40;47.50;;;;;;4372561;32;20410;-45
2021/11/17 10:27:03;;;;;;;;;;;8.40;47.40;;;;;;4360428;32;19984;-48
2021/11/17 10:29:34;;;;;;;;;;;8.50;47.30;;;;;;4372488;32;19958;-47
2021/11/17 10:32:19;;;;;;;;;;;8.50;47.00;;;;;;4372358;32;20077;-47
2021/11/17 10:34:58;;;;;;;;;;;8.50;46.90;;;;;;4372539;32;20058;-45
2021/11/17 10:37:31;;;;;;;;;;;8.40;47.00;;;;;;4372322;32;20047;-44
2021/11/17 10:39:58;;;;;;;;;;;8.40;47.20;;;;;;4359065;32;19993;-46
2021/11/17 10:42:35;;;;;;;;;;;8.40;47.10;;;;;;4372414;32;19984;-47
2021/11/17 10:45:22;;;;;;;;;;;8.40;47.10;;;;;;4372652;32;20000;-46
2021/11/17 10:47:49;;;;;;;;;;;8.40;47.30;;;;;;4358452;32;20041;-46
2021/11/17 10:50:26;;;;;;;;;;;8.40;47.30;;;;;;4372605;32;19977;-47
2021/11/17 10:53:15;;;;;;;;;;;8.40;47.20;;;;;;4372885;32;19977;-39
2021/11/17 10:55:49;;;;;;;;;;;8.40;47.10;;;;;;4372227;32;20071;-47
2021/11/17 10:58:29;;;;;;;;;;;8.40;47.10;;;;;;4358348;32;20518;-48
2021/11/17 11:01:01;;;;;;;;;;;8.40;46.80;;;;;;4371912;32;20006;-47
2021/11/17 11:03:30;;;;;;;;;;;8.30;46.80;;;;;;4372535;32;19958;-49
2021/11/17 11:06:08;;;;;;;;;;;8.30;46.80;;;;;;4358357;32;20361;-47
2021/11/17 11:08:46;;;;;;;;;;;8.30;46.80;;;;;;4361248;32;19966;-45
2021/11/17 11:11:13;;;;;;;;;;;8.20;46.90;;;;;;4361218;32;20049;-46
2021/11/17 11:13:54;;;;;;;;;;;8.20;46.80;;;;;;4375047;32;19954;-43
2021/11/17 11:16:27;;;;;;;;;;;8.10;47.10;;;;;;4361404;32;19954;-49
2021/11/17 11:19:24;;;;;;;;;;;8.10;47.30;;;;;;4361679;32;19965;-49
2021/11/17 11:21:50;;;;;;;;;;;8.10;47.40;;;;;;4371552;32;20117;-48
2021/11/17 11:24:32;;;;;;;;;;;8.10;47.30;;;;;;4389930;32;19983;-49
2021/11/17 11:27:01;;;;;;;;;;;8.20;47.30;;;;;;4389764;32;19966;-43
2021/11/17 11:29:30;;;;;;;;;;;8.20;47.20;;;;;;4389578;32;20008;-50
2021/11/17 11:31:58;;;;;;;;;;;8.20;47.20;;;;;;4389784;32;19962;-49
2021/11/17 11:34:44;;;;;;;;;;;8.20;46.90;;;;;;4390039;32;19966;-43
2021/11/17 11:37:31;;;;;;;;;;;8.10;47.00;;;;;;4389448;32;20069;-43
2021/11/17 11:40:03;;;;;;;;;;;8.10;47.10;;;;;;4378603;32;20453;-50
2021/11/17 11:42:39;;;;;;;;;;;8.20;47.20;;;;;;4374896;32;19977;-50
2021/11/17 11:45:08;;;;;;;;;;;8.20;47.10;;;;;;4389293;32;19962;-50
2021/11/17 11:47:51;;;;;;;;;;;8.20;47.10;;;;;;4389409;32;20407;-51
2021/11/17 11:50:35;;;;;;;;;;;8.10;47.00;;;;;;4375866;32;19965;-51
2021/11/17 11:53:06;;;;;;;;;;;8.10;47.00;;;;;;4389516;32;19961;-47
2021/11/17 11:55:51;;;;;;;;;;;8.10;46.80;;;;;;4388956;32;20146;-47
2021/11/17 11:58:26;;;;;;;;;;;8.10;46.70;;;;;;4389026;32;20068;-48
2021/11/17 12:01:21;;;;;;;;;;;8.00;46.50;;;;;;4389117;32;20470;-47
2021/11/17 12:03:52;;;;;;;;;;;7.80;46.50;;;;;;4388946;32;19974;-41
2021/11/17 12:06:20;;;;;;;;;;;7.60;47.00;;;;;;4375079;32;19965;-48
2021/11/17 12:08:48;;;;;;;;;;;7.50;47.60;;;;;;4389080;32;19992;-50
2021/11/17 12:11:17;;;;;;;;;;;7.40;47.90;;;;;;4375157;32;19973;-49
2021/11/17 12:13:58;;;;;;;;;;;7.40;48.00;;;;;;4389077;32;19969;-48
2021/11/17 12:16:29;;;;;;;;;;;7.30;48.10;;;;;;4388979;32;19978;-49
2021/11/17 12:18:58;;;;;;;;;;;7.30;48.30;;;;;;4388600;32;19986;-50
2021/11/17 12:21:32;;;;;;;;;;;7.20;48.50;;;;;;4350538;32;20467;-50
2021/11/17 12:24:06;;;;;;;;;;;7.30;48.60;;;;;;4373860;32;20054;-48
2021/11/17 12:26:34;;;;;;;;;;;7.30;48.60;;;;;;4373652;32;20374;-52
2021/11/17 12:29:10;;;;;;;;;;;7.40;48.60;;;;;;4373413;32;19973;-50
2021/11/17 12:31:56;;;;;;;;;;;7.40;48.40;;;;;;4373883;32;19989;-49
2021/11/17 12:34:35;;;;;;;;;;;7.50;48.30;;;;;;4325983;33;19986;-49
2021/11/17 12:37:09;;;;;;;;;;;7.50;48.10;;;;;;4326201;33;20413;-48
2021/11/17 12:40:13;;;;;;;;;;;7.60;48.00;;;;;;4314721;33;20068;-50
2021/11/17 12:42:45;;;;;;;;;;;7.60;47.90;;;;;;4326826;33;20034;-51
2021/11/17 12:45:38;;;;;;;;;;;7.50;48.10;;;;;;4326741;33;20546;-51
2021/11/17 12:48:21;;;;;;;;;;;7.50;48.20;;;;;;4326474;33;19999;-51
2021/11/17 12:50:51;;;;;;;;;;;7.40;48.40;;;;;;4315448;33;19991;-50
2021/11/17 12:53:29;;;;;;;;;;;7.40;48.60;;;;;;4314083;33;19986;-49
2021/11/17 12:55:57;;;;;;;;;;;7.40;48.70;;;;;;4302999;33;19990;-51
2021/11/17 12:58:39;;;;;;;;;;;7.50;48.70;;;;;;4314139;33;19971;-51
2021/11/17 13:01:21;;;;;;;;;;;7.50;48.50;;;;;;4314134;33;19986;-51
2021/11/17 13:03:47;;;;;;;;;;;7.40;48.40;;;;;;4325952;33;19963;-53
2021/11/17 13:06:22;;;;;;;;;;;7.40;48.50;;;;;;4365910;32;20026;-53
2021/11/17 13:09:06;;;;;;;;;;;7.40;48.50;;;;;;4373066;32;19974;-51
2021/11/17 13:11:33;;;;;;;;;;;7.40;48.50;;;;;;4373321;32;19958;-51
2021/11/17 13:13:59;;;;;;;;;;;7.40;48.50;;;;;;4373410;32;19973;-49
2021/11/17 13:16:39;;;;;;;;;;;7.40;48.40;;;;;;4372928;32;19955;-53
2021/11/17 13:19:18;;;;;;;;;;;7.40;48.30;;;;;;4358981;32;19974;-51
2021/11/17 13:21:51;;;;;;;;;;;7.40;48.30;;;;;;4372693;32;19984;-51
2021/11/17 13:24:22;;;;;;;;;;;7.50;48.30;;;;;;4373233;32;19958;-53
2021/11/17 13:26:51;;;;;;;;;;;7.50;48.30;;;;;;4373060;32;19958;-49
2021/11/17 13:29:32;;;;;;;;;;;7.40;48.20;;;;;;4358994;32;19977;-50
2021/11/17 13:32:07;;;;;;;;;;;7.50;48.30;;;;;;4358336;32;20042;-49
2021/11/17 13:34:42;;;;;;;;;;;7.40;48.20;;;;;;4372702;32;20411;-53
2021/11/17 13:37:38;;;;;;;;;;;7.50;48.30;;;;;;4384039;32;19973;-53
2021/11/17 13:40:24;;;;;;;;;;;7.40;48.20;;;;;;4386749;32;19962;-52
2021/11/17 13:42:51;;;;;;;;;;;7.50;48.30;;;;;;4387316;32;19996;-51
2021/11/17 13:45:20;;;;;;;;;;;7.50;48.30;;;;;;4387348;32;19966;-52
2021/11/17 13:47:46;;;;;;;;;;;7.50;48.20;;;;;;4387681;32;20020;-51
2021/11/17 13:50:13;;;;;;;;;;;7.50;48.40;;;;;;4373635;32;20434;-47
2021/11/17 13:52:41;;;;;;;;;;;7.50;48.40;;;;;;4387686;32;19977;-51
2021/11/17 13:55:10;;;;;;;;;;;7.50;48.50;;;;;;4388011;32;20054;-52
2021/11/17 13:57:36;;;;;;;;;;;7.60;48.50;;;;;;4387224;32;19992;-51
2021/11/17 14:00:07;;;;;;;;;;;7.60;48.30;;;;;;4373785;32;19977;-50
2021/11/17 14:02:33;;;;;;;;;;;7.60;48.30;;;;;;4388120;32;19968;-38
2021/11/17 14:05:01;;;;;;;;;;;7.70;48.20;;;;;;4373844;32;20410;-50
2021/11/17 14:07:28;;;;;;;;;;;7.70;48.20;;;;;;4387405;32;19961;-50
2021/11/17 14:09:54;;;;;;;;;;;7.70;48.10;;;;;;4373583;32;19993;-51
2021/11/17 14:12:21;;;;;;;;;;;7.70;48.00;;;;;;4387343;32;19999;-45
2021/11/17 14:14:47;;;;;;;;;;;7.70;48.10;;;;;;4387383;32;20037;-51
2021/11/17 14:17:13;;;;;;;;;;;7.70;48.10;;;;;;4373377;32;19969;-51
2021/11/17 14:19:40;;;;;;;;;;;7.70;48.10;;;;;;4353082;32;19982;-55
2021/11/17 14:22:06;;;;;;;;;;;7.70;48.20;;;;;;4339866;33;20438;-51
2021/11/17 14:24:33;;;;;;;;;;;7.70;48.20;;;;;;4309987;33;20043;-50
2021/11/17 14:26:59;;;;;;;;;;;7.80;48.20;;;;;;4310431;33;19970;-51
2021/11/17 14:29:53;;;;;;;;;;;7.80;48.20;;;;;;4298693;33;19990;-50
2021/11/17 14:32:24;;;;;;;;;;;7.80;48.10;;;;;;4306150;33;20041;-51
2021/11/17 14:34:50;;;;;;;;;;;7.90;48.10;;;;;;4310650;33;19991;-49
2021/11/17 14:37:16;;;;;;;;;;;7.90;48.10;;;;;;4310434;33;19983;-53
2021/11/17 14:39:43;;;;;;;;;;;7.90;48.00;;;;;;4298757;33;20009;-50
2021/11/17 14:42:10;;;;;;;;;;;7.90;48.00;;;;;;4311762;33;20010;-52
2021/11/17 14:44:36;;;;;;;;;;;7.90;48.00;;;;;;4313200;33;19964;-49
2021/11/17 14:47:04;;;;;;;;;;;7.90;47.90;;;;;;4313762;33;19974;-52
2021/11/17 14:49:31;;;;;;;;;;;7.90;47.90;;;;;;4313894;33;19967;-52
2021/11/17 14:51:59;;;;;;;;;;;7.90;48.00;;;;;;4343047;33;19990;-53
2021/11/17 14:54:25;;;;;;;;;;;7.90;47.90;;;;;;4314327;33;20050;-52
2021/11/17 14:56:51;;;;;;;;;;;7.90;47.90;;;;;;4342299;33;20084;-52
2021/11/17 14:59:17;;;;;;;;;;;7.90;48.00;;;;;;4342524;33;19970;-52
2021/11/17 15:01:44;;;;;;;;;;;7.90;47.80;;;;;;4342830;33;20007;-51
2021/11/17 15:04:10;;;;;;;;;;;7.80;47.80;;;;;;4342965;33;19975;-53
2021/11/17 15:06:37;;;;;;;;;;;7.80;48.70;;;;;;4342788;33;20072;-53
2021/11/17 15:09:05;;;;;;;;;;;7.80;48.20;;;;;;4318910;33;19974;-54
2021/11/17 15:11:44;;;;;;;;;;;7.80;48.20;;;;;;4342750;33;19987;-48
2021/11/17 15:14:10;;;;;;;;;;;7.80;48.10;;;;;;4330740;33;20413;-55
2021/11/17 15:16:36;;;;;;;;;;;7.80;48.10;;;;;;4342141;33;19975;-55
2021/11/17 15:19:02;;;;;;;;;;;7.80;48.20;;;;;;4342608;33;20009;-51
2021/11/17 15:21:29;;;;;;;;;;;7.80;48.20;;;;;;4342265;32;19970;-48
2021/11/17 15:23:55;;;;;;;;;;;7.80;48.20;;;;;;4357146;32;20427;-51
2021/11/17 15:26:21;;;;;;;;;;;7.80;48.20;;;;;;4357895;32;19962;-55
2021/11/17 15:28:50;;;;;;;;;;;7.80;48.30;;;;;;4357460;32;20051;-53
2021/11/17 15:31:23;;;;;;;;;;;7.80;48.30;;;;;;4353364;32;19962;-51
2021/11/17 15:33:49;;;;;;;;;;;7.80;48.30;;;;;;4389358;32;19987;-49
2021/11/17 15:36:16;;;;;;;;;;;7.80;48.20;;;;;;4389325;32;20041;-50
2021/11/17 15:38:43;;;;;;;;;;;7.80;48.20;;;;;;4389661;32;20000;-49
2021/11/17 15:41:13;;;;;;;;;;;7.80;48.20;;;;;;4390308;32;20000;-50
2021/11/17 15:43:42;;;;;;;;;;;7.80;48.20;;;;;;4389115;32;20037;-48
2021/11/17 15:46:09;;;;;;;;;;;7.80;48.30;;;;;;4389642;32;19981;-39
2021/11/17 15:48:35;;;;;;;;;;;7.80;48.30;;;;;;4389354;32;20431;-53
2021/11/17 15:51:08;;;;;;;;;;;7.80;48.20;;;;;;4389338;32;20359;-53
2021/11/17 15:53:34;;;;;;;;;;;7.80;48.20;;;;;;4374622;32;19969;-51
2021/11/17 15:56:00;;;;;;;;;;;7.80;48.30;;;;;;4389544;32;20004;-51
2021/11/17 15:58:27;;;;;;;;;;;7.80;48.30;;;;;;4375455;32;20384;-54
2021/11/17 16:00:53;;;;;;;;;;;7.70;48.30;;;;;;4389491;32;20045;-49
2021/11/17 16:03:20;;;;;;;;;;;7.70;48.40;;;;;;4389650;32;19986;-54
2021/11/17 16:05:46;;;;;;;;;;;7.60;48.50;;;;;;4389509;32;19962;-53
2021/11/17 16:08:13;;;;;;;;;;;7.60;48.90;;;;;;4389395;32;20378;-51
2021/11/17 16:10:39;;;;;;;;;;;7.60;49.00;;;;;;4389385;32;20120;-54
2021/11/17 16:13:05;;;;;;;;;;;7.50;48.90;;;;;;4389119;32;19984;-50
2021/11/17 16:15:31;;;;;;;;;;;7.50;49.10;;;;;;4388820;32;20005;-51
2021/11/17 16:17:58;;;;;;;;;;;7.50;49.20;;;;;;4388689;32;19969;-54
2021/11/17 16:20:32;;;;;;;;;;;7.50;49.30;;;;;;4383745;32;19977;-50
2021/11/17 16:23:04;;;;;;;;;;;7.50;49.90;;;;;;4360376;32;20432;-54
2021/11/17 16:25:35;;;;;;;;;;;7.50;49.30;;;;;;4360335;32;21083;-50
2021/11/17 16:28:23;;;;;;;;;;;7.50;49.40;;;;;;4373519;32;20024;-51
2021/11/17 16:30:53;;;;;;;;;;;7.50;49.50;;;;;;4359833;32;20370;-49
2021/11/17 16:33:19;;;;;;;;;;;7.50;49.40;;;;;;4374056;32;19958;-51
2021/11/17 16:35:45;;;;;;;;;;;7.50;49.60;;;;;;4373497;32;20499;-51
2021/11/17 16:38:12;;;;;;;;;;;7.50;49.70;;;;;;4373741;32;19991;-41
2021/11/17 16:40:39;;;;;;;;;;;7.40;50.10;;;;;;4373815;32;20006;-50
2021/11/17 16:43:06;;;;;;;;;;;7.40;50.50;;;;;;4373545;32;19954;-53
2021/11/17 16:45:33;;;;;;;;;;;7.30;50.70;;;;;;4373730;32;20002;-51
2021/11/17 16:47:59;;;;;;;;;;;7.30;50.90;;;;;;4373885;32;19970;-52
2021/11/17 16:50:25;;;;;;;;;;;7.30;51.10;;;;;;4371976;32;20470;-50
2021/11/17 16:52:52;;;;;;;;;;;7.30;51.20;;;;;;4373318;32;20049;-55
2021/11/17 16:55:29;;;;;;;;;;;7.30;51.60;;;;;;4359625;32;19974;-49
2021/11/17 16:57:57;;;;;;;;;;;7.20;51.70;;;;;;4373256;32;20066;-50
2021/11/17 17:00:26;;;;;;;;;;;7.30;52.10;;;;;;4373473;32;19966;-49
2021/11/17 17:02:53;;;;;;;;;;;7.20;52.30;;;;;;4373235;32;20001;-47
2021/11/17 17:05:21;;;;;;;;;;;7.20;52.60;;;;;;4373042;32;19958;-46
2021/11/17 17:07:47;;;;;;;;;;;7.10;52.80;;;;;;4373354;32;20401;-52
2021/11/17 17:10:16;;;;;;;;;;;7.10;53.00;;;;;;4373454;32;19982;-49
2021/11/17 17:12:42;;;;;;;;;;;7.10;52.90;;;;;;4373701;32;19963;-49
2021/11/17 17:15:09;;;;;;;;;;;7.20;52.90;;;;;;4372883;32;20038;-48
2021/11/17 17:17:35;;;;;;;;;;;7.20;53.40;;;;;;4373312;32;19962;-48
2021/11/17 17:20:07;;;;;;;;;;;7.20;52.60;;;;;;4373346;32;19966;-50
2021/11/17 17:22:33;;;;;;;;;;;7.30;52.50;;;;;;4373182;32;20382;-50
2021/11/17 17:25:00;;;;;;;;;;;7.30;52.50;;;;;;4371813;32;20045;-42
2021/11/17 17:27:27;;;;;;;;;;;7.40;52.40;;;;;;4373077;32;19965;-48
2021/11/17 17:29:53;;;;;;;;;;;7.40;52.20;;;;;;4373147;32;20022;-48
2021/11/17 17:32:19;;;;;;;;;;;7.50;52.10;;;;;;4373401;32;20037;-47
2021/11/17 17:34:49;;;;;;;;;;;7.50;52.00;;;;;;4373252;32;19970;-47
2021/11/17 17:37:15;;;;;;;;;;;7.50;51.90;;;;;;4383149;32;20047;-50
2021/11/17 17:39:43;;;;;;;;;;;7.50;51.80;;;;;;4388430;32;20421;-52